Flight Track Log - Related Links

Times and Time Zones

All times are in EDT time to prevent confusion due to time zone crossing. See the UAL252 flight status page for this flight to view local times or setup timezone preferences in your user account.

Time Position Orientation Groundspeed Altitude Reporting Facility
EDT Latitude Longitude Course Direction KTS MPH feet Rate Location/Type
Wed 04:36:59 PM 33.4333 -112.0333 20° North 167 192 2,000  Level Phoenix TRACON
Wed 04:37:47 PM 33.4333 -112.0833 270° West 184 212 3,100 1,077 Climbing Phoenix TRACON
Wed 04:38:17 PM 33.4322 -112.1025 266° West 189 217 3,400 1,957 Climbing Albuquerque Center
Wed 04:39:00 PM 33.7705 -111.8543 15° North  Level FlightAware Approximate
Wed 04:39:19 PM 33.4544 -112.1900 287° West 247 284 6,100  Level Albuquerque Center
Wed 04:40:00 PM 33.8835 -111.8063 20° North  Level FlightAware Approximate
Wed 04:40:21 PM 33.5314 -112.2044 351° North 280 322 8,600  Level Albuquerque Center
Wed 04:41:00 PM 33.9962 -111.7569 20° North  Level FlightAware Approximate
Wed 04:41:23 PM 33.6094 -112.1889 North 292 336 11,300  Level Albuquerque Center
Wed 04:42:00 PM 34.1090 -111.7078 20° North  Level FlightAware Approximate
Wed 04:42:25 PM 33.6836 -112.1208 37° Northeast 340 391 12,600  Level Albuquerque Center
Wed 04:43:27 PM 33.7617 -112.0381 41° Northeast 371 427 14,800 2,032 Climbing Albuquerque Center
Wed 04:44:29 PM 33.8417 -111.9536 41° Northeast 383 441 16,800 2,032 Climbing Albuquerque Center
Wed 04:45:31 PM 33.9378 -111.8514 41° Northeast 392 451 19,000 2,081 Climbing Albuquerque Center
Wed 04:46:33 PM 34.0297 -111.7522 42° Northeast 410 472 21,100 1,707 Climbing Albuquerque Center
Wed 04:47:34 PM 34.1328 -111.6953 25° Northeast 411 473 22,500 1,463 Climbing Albuquerque Center
Wed 04:48:36 PM 34.2486 -111.6519 17° North 418 481 24,100 1,355 Climbing Albuquerque Center
Wed 04:49:38 PM 34.3597 -111.6081 18° North 421 484 25,300 1,113 Climbing Albuquerque Center
Wed 04:50:40 PM 34.4728 -111.5625 18° North 426 490 26,400 1,065 Climbing Albuquerque Center
Wed 04:51:42 PM 34.5792 -111.4844 31° Northeast 448 516 27,500 1,113 Climbing Albuquerque Center
Wed 04:52:44 PM 34.6631 -111.3647 50° Northeast 463 533 28,700 968 Climbing Albuquerque Center
Wed 04:53:46 PM 34.7500 -111.2433 49° Northeast 473 544 29,500 968 Climbing Albuquerque Center
Wed 04:54:48 PM 34.8364 -111.1197 50° Northeast 478 550 30,700 1,161 Climbing Albuquerque Center
Wed 04:55:50 PM 34.9389 -110.9692 50° Northeast 481 554 31,900 1,161 Climbing Albuquerque Center
Wed 04:56:52 PM 35.0269 -110.8456 49° Northeast 483 556 33,100 968 Climbing Albuquerque Center
Wed 04:57:54 PM 35.1114 -110.7206 50° Northeast 480 552 33,900 774 Climbing Albuquerque Center
Wed 04:58:56 PM 35.2025 -110.5758 52° Northeast 479 551 34,700 532 Climbing Albuquerque Center
Wed 04:59:58 PM 35.2817 -110.4525 52° Northeast 481 554 35,000 146 Climbing Albuquerque Center
Wed 05:00:59 PM 35.3728 -110.3108 52° Northeast 476 548 35,000  Level Albuquerque Center
Wed 05:02:01 PM 35.4519 -110.1881 52° Northeast 477 549 35,000 48 Level Albuquerque Center
Wed 05:03:03 PM 35.5456 -110.0422 52° Northeast 484 557 35,100  Climbing Albuquerque Center
Wed 05:04:05 PM 35.6253 -109.9178 52° Northeast 484 557 35,000 -48 Descending Albuquerque Center
Wed 05:05:07 PM 35.7042 -109.7933 52° Northeast 484 557 35,000  Level Albuquerque Center
Wed 05:06:09 PM 35.7956 -109.6456 53° Northeast 485 558 35,000  Level Albuquerque Center
Wed 05:07:11 PM 35.8756 -109.5203 52° Northeast 486 559 35,000  Level Albuquerque Center
Wed 05:07:53 PM 35.9408 -109.4158 52° Northeast 485 558 35,000  Level Denver Center
Wed 05:08:13 PM 35.9678 -109.3725 52° Northeast 485 558 35,000  Level Albuquerque Center
Wed 05:09:15 PM 36.0472 -109.2450 52° Northeast 486 559 35,000  Level Albuquerque Center
Wed 05:10:09 PM 36.1264 -109.1183 52° Northeast 485 558 35,000 -52 Level Denver Center
Wed 05:11:10 PM 36.2058 -108.9908 52° Northeast 481 554 34,900 -293 Descending Denver Center
Wed 05:12:12 PM 36.2869 -108.8608 52° Northeast 487 560 34,400 -435 Descending Denver Center
Wed 05:13:14 PM 36.3794 -108.7094 53° Northeast 489 563 34,000 -194 Descending Denver Center
Wed 05:14:16 PM 36.4575 -108.5803 53° Northeast 487 560 34,000 -48 Level Denver Center
Wed 05:15:18 PM 36.5497 -108.4294 53° Northeast 489 563 33,900  Descending Denver Center
Wed 05:16:19 PM 36.6297 -108.2986 53° Northeast 495 570 34,000 49 Climbing Denver Center
Wed 05:17:21 PM 36.7228 -108.1453 53° Northeast 497 572 34,000  Level Denver Center
Wed 05:18:23 PM 36.7992 -108.0494 45° Northeast 492 566 34,000 -194 Level Denver Center
Wed 05:19:25 PM 36.9164 -107.9350 38° Northeast 482 555 33,600 -441 Descending Denver Center
Wed 05:20:39 PM 37.0319 -107.8189 39° Northeast 478 550 33,000 -265 Descending Denver Center
Wed 05:21:41 PM 37.1644 -107.6903 38° Northeast 472 543 33,000  Level Denver Center
Wed 05:22:43 PM 37.2633 -107.5897 39° Northeast 477 549 33,000  Level Denver Center
Wed 05:23:44 PM 37.3625 -107.4900 39° Northeast 476 548 33,000  Level Denver Center
Wed 05:24:46 PM 37.4806 -107.3725 38° Northeast 482 555 33,000  Level Denver Center
Wed 05:25:48 PM 37.5794 -107.2703 39° Northeast 481 554 33,000 -48 Level Denver Center
Wed 05:26:50 PM 37.6961 -107.1533 38° Northeast 479 551 32,900  Descending Denver Center
Wed 05:27:52 PM 37.7964 -107.0506 39° Northeast 483 556 33,000 48 Climbing Denver Center
Wed 05:28:54 PM 37.9136 -106.9247 40° Northeast 493 567 33,000  Level Denver Center
Wed 05:29:55 PM 38.0117 -106.8247 39° Northeast 483 556 33,000  Level Denver Center
Wed 05:30:57 PM 38.1294 -106.7050 39° Northeast 484 557 33,000  Level Denver Center
Wed 05:31:59 PM 38.2311 -106.5983 39° Northeast 491 565 33,000  Level Denver Center
Wed 05:33:13 PM 38.3375 -106.4694 44° Northeast 498 573 33,000 -529 Level Denver Center
Wed 05:34:15 PM 38.4597 -106.3172 44° Northeast 510 587 31,800 -1,548 Descending Denver Center
Wed 05:35:17 PM 38.5600 -106.1911 45° Northeast 509 586 29,800 -1,935 Descending Denver Center
Wed 05:36:19 PM 38.6714 -106.0500 45° Northeast 498 573 27,800 -1,742 Descending Denver Center
Wed 05:37:21 PM 38.7683 -105.9297 44° Northeast 484 557 26,200 -1,951 Descending Denver Center
Wed 05:38:22 PM 38.8664 -105.8056 45° Northeast 488 562 23,800 -1,951 Descending Denver Center
Wed 05:39:24 PM 38.9594 -105.6886 44° Northeast 471 542 22,200 -1,597 Descending Denver Center
Wed 05:40:26 PM 39.0469 -105.5761 45° Northeast 447 514 20,500 -1,645 Descending Denver Center
Wed 05:41:28 PM 39.1311 -105.4675 45° Northeast 431 496 18,800 -1,403 Descending Denver Center
Wed 05:42:30 PM 39.2222 -105.3514 45° Northeast 416 479 17,600 -1,016 Descending Denver Center
Wed 05:43:32 PM 39.2728 -105.2281 62° Northeast 374 430 16,700 -774 Descending Denver Center
Wed 05:44:34 PM 39.2944 -105.1089 77° East 347 399 16,000 -726 Descending Denver Center
Wed 05:45:36 PM 39.3150 -105.0006 76° East 322 371 15,200 -629 Descending Denver Center
Wed 05:46:38 PM 39.3589 -104.9150 56° Northeast 278 320 14,700 -726 Descending Denver Center
Wed 05:47:40 PM 39.4175 -104.8528 39° Northeast 271 312 13,700 -1,016 Descending Denver Center
Wed 05:48:42 PM 39.4697 -104.7800 47° Northeast 257 296 12,600 -1,161 Descending Denver Center
Wed 05:49:44 PM 39.5111 -104.7103 52° Northeast 246 283 11,300 -1,056 Descending Denver Center
Wed 05:50:47 PM 39.5728 -104.6714 26° Northeast 227 261 10,400 -816 Descending Denver Center
Wed 05:51:49 PM 39.6256 -104.6628 North 187 215 9,600 -871 Descending Denver Center
Wed 05:52:51 PM 39.6739 -104.6619 North 175 201 8,600 -927 Descending Denver Center
Wed 05:53:52 PM 39.7142 -104.6622 360° North 172 198 7,700 -885 Descending Denver Center

Login

Don't have an account? Register now (free) for customized features, flight alerts, and more!